createdAt,value
2019-02-09T00:00:22.570Z,28.47
2019-02-09T00:01:02.796Z,28.46
2019-02-09T00:01:39.120Z,28.46
2019-02-09T00:02:15.411Z,28.45
2019-02-09T00:02:51.651Z,28.45
2019-02-09T00:03:27.813Z,28.46
2019-02-09T00:04:03.992Z,28.45
2019-02-09T00:04:40.147Z,28.46
2019-02-09T00:05:16.754Z,28.46
2019-02-09T00:05:52.972Z,28.47
2019-02-09T00:06:29.271Z,28.48
2019-02-09T00:07:05.387Z,28.48
2019-02-09T00:07:41.495Z,28.50
2019-02-09T00:08:17.658Z,28.52
2019-02-09T00:08:53.951Z,28.54
2019-02-09T00:09:29.986Z,28.57
2019-02-09T00:10:06.906Z,28.58
2019-02-09T00:10:43.034Z,28.61
2019-02-09T00:11:19.271Z,28.64
2019-02-09T00:11:55.325Z,28.66
2019-02-09T00:12:31.415Z,28.68
2019-02-09T00:13:07.658Z,28.70
2019-02-09T00:13:43.751Z,28.73
2019-02-09T00:14:19.885Z,28.75
2019-02-09T00:14:56.050Z,28.77
2019-02-09T00:15:32.591Z,28.80
2019-02-09T00:16:09.159Z,28.82
2019-02-09T00:16:45.420Z,28.84
2019-02-09T00:17:21.511Z,28.87
2019-02-09T00:17:57.720Z,28.89
2019-02-09T00:18:34.033Z,28.91
2019-02-09T00:19:10.191Z,28.93
2019-02-09T00:19:46.293Z,28.96
2019-02-09T00:20:22.654Z,29.02
2019-02-09T00:20:58.945Z,29.02
2019-02-09T00:21:35.061Z,29.04
2019-02-09T00:22:11.329Z,29.08
2019-02-09T00:22:47.433Z,29.11
2019-02-09T00:23:23.602Z,29.14
2019-02-09T00:23:59.702Z,29.17
2019-02-09T00:24:36.027Z,29.18
2019-02-09T00:25:15.302Z,29.18
2019-02-09T00:25:51.411Z,29.24
2019-02-09T00:26:27.701Z,29.28
2019-02-09T00:27:03.847Z,29.30
2019-02-09T00:27:39.963Z,29.32
2019-02-09T00:28:16.143Z,29.35
2019-02-09T00:28:52.351Z,29.37
2019-02-09T00:29:28.555Z,29.40
2019-02-09T00:30:04.873Z,29.45
2019-02-09T00:30:41.044Z,29.45
2019-02-09T00:31:17.400Z,29.46
2019-02-09T00:31:53.754Z,29.48
2019-02-09T00:32:29.943Z,29.55
2019-02-09T00:33:06.284Z,29.55
2019-02-09T00:33:42.614Z,29.59
2019-02-09T00:34:18.895Z,29.63
2019-02-09T00:34:55.158Z,29.64
2019-02-09T00:35:31.493Z,29.70
2019-02-09T00:36:07.845Z,29.72
2019-02-09T00:36:43.938Z,29.72
2019-02-09T00:37:19.997Z,29.76
2019-02-09T00:37:56.245Z,29.76
2019-02-09T00:38:32.359Z,29.76
2019-02-09T00:39:09.839Z,29.79
2019-02-09T00:39:46.020Z,29.81
2019-02-09T00:40:22.294Z,29.93
2019-02-09T00:40:58.486Z,29.95
2019-02-09T00:41:34.898Z,29.95
2019-02-09T00:42:11.201Z,29.97
2019-02-09T00:42:48.494Z,30.03
2019-02-09T00:43:24.653Z,30.03
2019-02-09T00:44:00.901Z,30.09
2019-02-09T00:44:37.195Z,30.09
2019-02-09T00:45:13.775Z,30.14
2019-02-09T00:45:50.224Z,30.14
2019-02-09T00:46:26.434Z,30.18
2019-02-09T00:47:02.744Z,30.21
2019-02-09T00:47:38.920Z,30.20
2019-02-09T00:48:15.166Z,30.22
2019-02-09T00:48:51.473Z,30.27
2019-02-09T00:49:27.867Z,30.27
2019-02-09T00:50:04.259Z,30.34
2019-02-09T00:50:40.432Z,30.35
2019-02-09T00:51:16.612Z,30.43
2019-02-09T00:51:52.804Z,30.43
2019-02-09T00:52:29.046Z,30.41
2019-02-09T00:53:05.312Z,30.50
2019-02-09T00:53:41.620Z,30.55
2019-02-09T00:54:17.944Z,30.55
2019-02-09T00:54:54.089Z,30.58
2019-02-09T00:55:30.470Z,30.58
2019-02-09T00:56:07.077Z,30.63
2019-02-09T00:56:43.184Z,30.60
2019-02-09T00:57:19.429Z,30.63
2019-02-09T00:57:55.734Z,30.63
2019-02-09T00:58:32.204Z,30.69
2019-02-09T00:59:08.269Z,30.70
2019-02-09T00:59:44.522Z,30.70
2019-02-09T01:00:22.819Z,30.76
2019-02-09T01:00:59.056Z,30.78
2019-02-09T01:01:35.116Z,30.83
2019-02-09T01:02:11.393Z,30.86
2019-02-09T01:02:47.693Z,30.93
2019-02-09T01:03:23.972Z,30.96
2019-02-09T01:04:00.123Z,30.96
2019-02-09T01:04:36.250Z,30.99
2019-02-09T01:05:12.677Z,30.98
2019-02-09T01:05:49.094Z,30.98
2019-02-09T01:06:25.355Z,31.06
2019-02-09T01:07:01.501Z,31.09
2019-02-09T01:07:37.756Z,31.11
2019-02-09T01:08:14.107Z,31.15
2019-02-09T01:08:50.194Z,31.19
2019-02-09T01:09:26.503Z,31.19
2019-02-09T01:10:02.591Z,31.22
2019-02-09T01:10:38.936Z,31.25
2019-02-09T01:11:15.105Z,31.28
2019-02-09T01:11:51.295Z,31.28
2019-02-09T01:12:27.369Z,31.30
2019-02-09T01:13:03.515Z,31.34
2019-02-09T01:13:39.781Z,31.36
2019-02-09T01:14:15.808Z,31.38
2019-02-09T01:14:52.079Z,31.41
2019-02-09T01:15:28.326Z,31.43
2019-02-09T01:16:04.501Z,31.47
2019-02-09T01:16:40.906Z,31.51
2019-02-09T01:17:17.282Z,31.53
2019-02-09T01:17:53.461Z,31.56
2019-02-09T01:18:29.551Z,31.60
2019-02-09T01:19:05.865Z,31.62
2019-02-09T01:19:41.971Z,31.65
2019-02-09T01:20:22.987Z,31.68
2019-02-09T01:20:59.213Z,31.72
2019-02-09T01:21:35.334Z,31.76
2019-02-09T01:22:11.559Z,31.80
2019-02-09T01:22:48.078Z,31.84
2019-02-09T01:23:24.315Z,31.87
2019-02-09T01:24:00.528Z,31.91
2019-02-09T01:24:36.726Z,31.96
2019-02-09T01:25:13.293Z,31.99
2019-02-09T01:25:49.585Z,32.03
2019-02-09T01:26:25.656Z,32.06
2019-02-09T01:27:01.983Z,32.08
2019-02-09T01:27:38.110Z,32.13
2019-02-09T01:28:14.188Z,32.16
2019-02-09T01:28:50.365Z,32.19
2019-02-09T01:29:26.522Z,32.21
2019-02-09T01:30:03.032Z,32.23
2019-02-09T01:30:39.370Z,32.26
2019-02-09T01:31:15.682Z,32.28
2019-02-09T01:31:51.885Z,32.32
2019-02-09T01:32:28.246Z,32.34
2019-02-09T01:33:04.391Z,32.35
2019-02-09T01:33:40.591Z,32.38
2019-02-09T01:34:16.836Z,32.39
2019-02-09T01:34:53.003Z,32.43
2019-02-09T01:35:29.319Z,32.46
2019-02-09T01:36:05.445Z,32.50
2019-02-09T01:36:41.757Z,32.53
2019-02-09T01:37:17.967Z,32.56
2019-02-09T01:37:54.460Z,32.58
2019-02-09T01:38:30.409Z,32.61
2019-02-09T01:39:08.659Z,32.61
2019-02-09T01:39:44.788Z,32.65
2019-02-09T01:40:24.243Z,32.66
2019-02-09T01:41:00.313Z,32.64
2019-02-09T01:41:36.363Z,32.66
2019-02-09T01:42:12.473Z,32.68
2019-02-09T01:42:48.666Z,32.70
2019-02-09T01:43:24.873Z,32.73
2019-02-09T01:44:01.135Z,32.76
2019-02-09T01:44:37.917Z,32.80
2019-02-09T01:45:17.299Z,32.82
2019-02-09T01:45:53.517Z,32.86
2019-02-09T01:46:29.809Z,32.90
2019-02-09T01:47:06.109Z,32.93
2019-02-09T01:47:42.290Z,32.96
2019-02-09T01:48:18.606Z,32.98
2019-02-09T01:48:54.709Z,33.02
2019-02-09T01:49:30.796Z,33.05
2019-02-09T01:50:09.003Z,33.08
2019-02-09T01:50:45.253Z,33.09
2019-02-09T01:51:21.488Z,33.12
2019-02-09T01:51:57.696Z,33.14
2019-02-09T01:52:33.777Z,33.13
2019-02-09T01:53:09.997Z,33.17
2019-02-09T01:53:46.189Z,33.16
2019-02-09T01:54:22.319Z,33.20
2019-02-09T01:54:58.463Z,33.19
2019-02-09T01:55:34.501Z,33.18
2019-02-09T01:56:10.763Z,33.20
2019-02-09T01:56:46.920Z,33.22
2019-02-09T01:57:22.996Z,33.18
2019-02-09T01:57:59.325Z,33.20
2019-02-09T01:58:35.570Z,33.23
2019-02-09T01:59:11.872Z,33.23
2019-02-09T01:59:48.114Z,33.25
2019-02-09T02:00:26.079Z,33.28
2019-02-09T02:01:02.213Z,33.31
2019-02-09T02:01:38.318Z,33.33
2019-02-09T02:02:14.743Z,33.35
2019-02-09T02:02:51.201Z,33.39
2019-02-09T02:03:27.596Z,33.43
2019-02-09T02:04:03.713Z,33.47
2019-02-09T02:04:39.883Z,33.48
2019-02-09T02:05:16.821Z,33.44
2019-02-09T02:05:52.903Z,33.47
2019-02-09T02:06:28.964Z,33.49
2019-02-09T02:07:05.065Z,33.49
2019-02-09T02:07:41.232Z,33.52
2019-02-09T02:08:21.063Z,33.51
2019-02-09T02:08:57.248Z,33.52
2019-02-09T02:09:33.380Z,33.53
2019-02-09T02:10:12.249Z,33.58
2019-02-09T02:10:48.600Z,33.62
2019-02-09T02:11:24.771Z,33.64
2019-02-09T02:12:00.852Z,33.66
2019-02-09T02:12:36.982Z,33.69
2019-02-09T02:13:13.464Z,33.71
2019-02-09T02:13:49.496Z,33.74
2019-02-09T02:14:25.486Z,33.76
2019-02-09T02:15:01.555Z,33.80
2019-02-09T02:15:37.882Z,33.82
2019-02-09T02:16:14.057Z,33.78
2019-02-09T02:16:50.590Z,33.83
2019-02-09T02:17:26.850Z,33.84
2019-02-09T02:18:03.194Z,33.87
2019-02-09T02:18:39.302Z,33.90
2019-02-09T02:19:15.534Z,33.91
2019-02-09T02:19:51.783Z,33.93
2019-02-09T02:20:28.748Z,33.96
2019-02-09T02:21:05.010Z,33.99
2019-02-09T02:21:41.286Z,33.98
2019-02-09T02:22:17.428Z,34.02
2019-02-09T02:22:53.539Z,34.01
2019-02-09T02:23:29.555Z,34.05
2019-02-09T02:24:05.731Z,34.06
2019-02-09T02:24:41.836Z,34.11
2019-02-09T02:25:18.328Z,34.15
2019-02-09T02:25:54.526Z,34.15
2019-02-09T02:26:30.797Z,34.12
2019-02-09T02:27:06.990Z,34.17
2019-02-09T02:27:43.082Z,34.17
2019-02-09T02:28:19.368Z,34.17
2019-02-09T02:28:55.446Z,34.18
2019-02-09T02:29:31.712Z,34.18
2019-02-09T02:30:09.037Z,34.21
2019-02-09T02:30:45.260Z,34.21
2019-02-09T02:31:21.255Z,34.22
2019-02-09T02:31:57.477Z,34.26
2019-02-09T02:32:34.791Z,34.26
2019-02-09T02:33:11.416Z,34.29
2019-02-09T02:33:47.465Z,34.31
2019-02-09T02:34:23.731Z,34.33
2019-02-09T02:34:59.995Z,34.37
2019-02-09T02:35:36.259Z,34.43
2019-02-09T02:36:12.507Z,34.45
2019-02-09T02:36:48.608Z,34.51
2019-02-09T02:37:24.880Z,34.55
2019-02-09T02:38:00.908Z,34.56
2019-02-09T02:38:37.077Z,34.57
2019-02-09T02:39:13.583Z,34.59
2019-02-09T02:39:49.780Z,34.58
2019-02-09T02:40:26.225Z,34.59
2019-02-09T02:41:02.322Z,34.60
2019-02-09T02:41:38.411Z,34.62
2019-02-09T02:42:14.502Z,34.64
2019-02-09T02:42:50.750Z,34.68
2019-02-09T02:43:27.108Z,34.69
2019-02-09T02:44:03.239Z,34.74
2019-02-09T02:44:39.402Z,34.78
2019-02-09T02:45:16.225Z,34.80
2019-02-09T02:45:52.350Z,34.80
2019-02-09T02:46:28.534Z,34.82
2019-02-09T02:47:04.716Z,34.85
2019-02-09T02:47:40.963Z,34.84
2019-02-09T02:48:16.929Z,34.87
2019-02-09T02:48:53.116Z,34.89
2019-02-09T02:49:29.187Z,34.92
2019-02-09T02:50:05.496Z,34.91
2019-02-09T02:50:41.742Z,34.92
2019-02-09T02:51:17.865Z,34.93
2019-02-09T02:51:54.001Z,34.95
2019-02-09T02:52:30.302Z,34.96
2019-02-09T02:53:06.635Z,35.00
2019-02-09T02:53:42.843Z,35.00
2019-02-09T02:54:19.054Z,35.02
2019-02-09T02:54:55.272Z,35.04
2019-02-09T02:55:31.479Z,35.05
2019-02-09T02:56:07.775Z,35.09
2019-02-09T02:56:44.031Z,35.14
2019-02-09T02:57:20.181Z,35.19
2019-02-09T02:57:56.562Z,35.25
2019-02-09T02:58:32.829Z,35.28
2019-02-09T02:59:08.897Z,35.30
2019-02-09T02:59:45.191Z,35.35
2019-02-09T03:00:31.625Z,35.35
2019-02-09T03:01:01.015Z,35.38
2019-02-09T03:01:37.096Z,35.39
2019-02-09T03:02:13.203Z,35.39
2019-02-09T03:02:49.460Z,35.41
2019-02-09T03:03:25.765Z,35.43
2019-02-09T03:04:01.817Z,35.44
2019-02-09T03:04:37.856Z,35.39
2019-02-09T03:05:16.017Z,35.41
2019-02-09T03:05:52.117Z,35.42
2019-02-09T03:06:28.450Z,35.45
2019-02-09T03:07:04.744Z,35.46
2019-02-09T03:07:41.034Z,35.48
2019-02-09T03:08:17.214Z,35.51
2019-02-09T03:08:53.216Z,35.52
2019-02-09T03:09:29.352Z,35.52
2019-02-09T03:10:05.975Z,35.55
2019-02-09T03:10:42.185Z,35.57
2019-02-09T03:11:18.552Z,35.58
2019-02-09T03:11:54.850Z,35.55
2019-02-09T03:12:31.029Z,35.55
2019-02-09T03:13:07.086Z,35.54
2019-02-09T03:13:43.335Z,35.52
2019-02-09T03:14:19.435Z,35.48
2019-02-09T03:14:55.626Z,35.51
2019-02-09T03:15:32.450Z,35.52
2019-02-09T03:16:08.688Z,35.54
2019-02-09T03:16:44.806Z,35.58
2019-02-09T03:17:21.292Z,35.57
2019-02-09T03:17:57.455Z,35.59
2019-02-09T03:18:33.488Z,35.56
2019-02-09T03:19:09.625Z,35.55
2019-02-09T03:19:45.757Z,35.53
2019-02-09T03:20:22.127Z,35.54
2019-02-09T03:20:58.204Z,35.53
2019-02-09T03:21:34.507Z,35.54
2019-02-09T03:22:10.630Z,35.57
2019-02-09T03:22:46.935Z,35.60
2019-02-09T03:23:23.092Z,35.64
2019-02-09T03:23:59.222Z,35.67
2019-02-09T03:24:35.326Z,35.69
2019-02-09T03:25:13.886Z,35.72
2019-02-09T03:25:50.028Z,35.75
2019-02-09T03:26:26.347Z,35.77
2019-02-09T03:27:02.451Z,35.76
2019-02-09T03:27:38.618Z,35.77
2019-02-09T03:28:14.722Z,35.80
2019-02-09T03:28:51.054Z,35.76
2019-02-09T03:29:27.273Z,35.78
2019-02-09T03:30:03.551Z,35.79
2019-02-09T03:30:47.629Z,35.78
2019-02-09T03:31:17.789Z,35.80
2019-02-09T03:31:54.077Z,35.79
2019-02-09T03:32:30.199Z,35.82
2019-02-09T03:33:06.400Z,35.87
2019-02-09T03:33:42.728Z,35.84
2019-02-09T03:34:18.866Z,35.89
2019-02-09T03:34:55.048Z,35.94
2019-02-09T03:35:31.199Z,35.97
2019-02-09T03:36:07.221Z,35.99
2019-02-09T03:36:43.436Z,36.04
2019-02-09T03:37:19.695Z,36.05
2019-02-09T03:37:56.016Z,36.08
2019-02-09T03:38:32.274Z,36.09
2019-02-09T03:39:09.905Z,36.11
2019-02-09T03:39:46.221Z,36.15
2019-02-09T03:40:23.373Z,36.15
2019-02-09T03:40:59.533Z,36.20
2019-02-09T03:41:35.793Z,36.23
2019-02-09T03:42:12.083Z,36.23
2019-02-09T03:42:48.467Z,36.21
2019-02-09T03:43:24.533Z,36.19
2019-02-09T03:44:00.824Z,36.18
2019-02-09T03:44:37.095Z,36.11
2019-02-09T03:45:19.481Z,36.06
2019-02-09T03:45:55.698Z,36.04
2019-02-09T03:46:31.811Z,36.06
2019-02-09T03:47:08.006Z,36.06
2019-02-09T03:47:44.326Z,36.08
2019-02-09T03:48:20.585Z,36.06
2019-02-09T03:48:56.906Z,36.12
2019-02-09T03:49:33.042Z,36.17
2019-02-09T03:50:10.313Z,36.20
2019-02-09T03:50:46.513Z,36.23
2019-02-09T03:51:22.743Z,36.15
2019-02-09T03:51:58.707Z,36.18
2019-02-09T03:52:34.897Z,36.16
2019-02-09T03:53:11.171Z,36.17
2019-02-09T03:53:47.453Z,36.17
2019-02-09T03:54:23.723Z,36.18
2019-02-09T03:54:59.836Z,36.20
2019-02-09T03:55:36.039Z,36.17
2019-02-09T03:56:12.286Z,36.23
2019-02-09T03:56:48.441Z,36.26
2019-02-09T03:57:24.502Z,36.27
2019-02-09T03:58:00.559Z,36.30
2019-02-09T03:58:36.773Z,36.31
2019-02-09T03:59:12.893Z,36.33
2019-02-09T03:59:49.189Z,36.36
2019-02-09T04:00:26.882Z,36.36
2019-02-09T04:01:03.322Z,36.40
2019-02-09T04:01:39.600Z,36.42
2019-02-09T04:02:15.857Z,36.43
2019-02-09T04:02:52.121Z,36.41
2019-02-09T04:03:28.386Z,36.43
2019-02-09T04:04:04.464Z,36.42
2019-02-09T04:04:40.650Z,36.39
2019-02-09T04:05:16.873Z,36.37
2019-02-09T04:05:52.974Z,36.38
2019-02-09T04:06:29.157Z,36.40
2019-02-09T04:07:05.394Z,36.40
2019-02-09T04:07:41.577Z,36.39
2019-02-09T04:08:17.857Z,36.42
2019-02-09T04:08:53.977Z,36.40
2019-02-09T04:09:30.355Z,36.41
2019-02-09T04:10:08.184Z,36.44
2019-02-09T04:10:44.424Z,36.45
2019-02-09T04:11:20.535Z,36.47
2019-02-09T04:11:56.572Z,36.49
2019-02-09T04:12:32.686Z,36.50
2019-02-09T04:13:08.900Z,36.52
2019-02-09T04:13:45.120Z,36.49
2019-02-09T04:14:21.423Z,36.51
2019-02-09T04:14:57.693Z,36.47
2019-02-09T04:15:33.835Z,36.38
2019-02-09T04:16:09.938Z,36.39
2019-02-09T04:16:46.281Z,36.42
2019-02-09T04:17:22.381Z,36.40
2019-02-09T04:17:58.933Z,36.42
2019-02-09T04:18:35.220Z,36.43
2019-02-09T04:19:11.322Z,36.43
2019-02-09T04:19:47.582Z,36.44
2019-02-09T04:20:24.257Z,36.46
2019-02-09T04:21:00.431Z,36.49
2019-02-09T04:21:36.533Z,36.51
2019-02-09T04:22:12.681Z,36.49
2019-02-09T04:22:48.810Z,36.51
2019-02-09T04:23:24.922Z,36.55
2019-02-09T04:24:01.116Z,36.57
2019-02-09T04:24:37.182Z,36.60
2019-02-09T04:25:14.559Z,36.60
2019-02-09T04:25:50.662Z,36.60
2019-02-09T04:26:26.838Z,36.62
2019-02-09T04:27:02.962Z,36.61
2019-02-09T04:27:39.085Z,36.61
2019-02-09T04:28:15.193Z,36.59
2019-02-09T04:28:51.436Z,36.61
2019-02-09T04:29:27.597Z,36.60
2019-02-09T04:30:03.840Z,36.61
2019-02-09T04:30:39.953Z,36.61
2019-02-09T04:31:16.182Z,36.64
2019-02-09T04:31:52.322Z,36.65
2019-02-09T04:32:28.658Z,36.70
2019-02-09T04:33:04.734Z,36.74
2019-02-09T04:33:40.853Z,36.72
2019-02-09T04:34:16.973Z,36.73
2019-02-09T04:34:53.163Z,36.75
2019-02-09T04:35:29.299Z,36.75
2019-02-09T04:36:05.427Z,36.75
2019-02-09T04:36:41.457Z,36.77
2019-02-09T04:37:17.675Z,36.79
2019-02-09T04:37:53.884Z,36.82
2019-02-09T04:38:30.171Z,36.83
2019-02-09T04:39:08.292Z,36.85
2019-02-09T04:39:44.333Z,36.85
2019-02-09T04:40:24.909Z,36.89
2019-02-09T04:41:01.199Z,36.91
2019-02-09T04:41:37.433Z,36.91
2019-02-09T04:42:13.667Z,36.94
2019-02-09T04:42:49.798Z,36.95
2019-02-09T04:43:26.141Z,36.98
2019-02-09T04:44:02.483Z,36.99
2019-02-09T04:44:38.626Z,37.01
2019-02-09T04:45:15.279Z,37.02
2019-02-09T04:45:51.364Z,37.04
2019-02-09T04:46:27.439Z,37.07
2019-02-09T04:47:03.564Z,37.06
2019-02-09T04:47:39.711Z,37.02
2019-02-09T04:48:15.845Z,36.99
2019-02-09T04:48:51.842Z,36.93
2019-02-09T04:49:28.016Z,36.78
2019-02-09T04:50:04.167Z,36.61
2019-02-09T04:50:40.421Z,36.49
2019-02-09T04:51:16.826Z,36.39
2019-02-09T04:51:53.138Z,36.27
2019-02-09T04:52:29.265Z,36.29
2019-02-09T04:53:05.397Z,36.28
2019-02-09T04:53:41.473Z,36.20
2019-02-09T04:54:17.493Z,36.12
2019-02-09T04:54:53.573Z,36.11
2019-02-09T04:55:29.813Z,36.06
2019-02-09T04:56:06.134Z,36.09
2019-02-09T04:56:42.423Z,36.08
2019-02-09T04:57:18.651Z,36.08
2019-02-09T04:57:54.813Z,36.02
2019-02-09T04:58:30.947Z,36.09
2019-02-09T04:59:07.249Z,36.17
2019-02-09T04:59:43.463Z,36.24
2019-02-09T05:00:27.305Z,36.27
2019-02-09T05:01:03.729Z,36.31
2019-02-09T05:01:40.069Z,36.31
2019-02-09T05:02:16.161Z,36.30
2019-02-09T05:02:52.464Z,36.26
2019-02-09T05:03:28.797Z,36.28
2019-02-09T05:04:04.984Z,36.31
2019-02-09T05:04:41.079Z,36.36
2019-02-09T05:05:17.271Z,36.36
2019-02-09T05:05:53.353Z,36.32
2019-02-09T05:06:29.464Z,36.26
2019-02-09T05:07:05.749Z,36.11
2019-02-09T05:07:41.867Z,36.04
2019-02-09T05:08:18.060Z,35.89
2019-02-09T05:08:54.308Z,35.76
2019-02-09T05:09:30.561Z,35.65
2019-02-09T05:10:07.163Z,35.49
2019-02-09T05:10:43.323Z,35.45
2019-02-09T05:11:19.496Z,35.42
2019-02-09T05:11:55.683Z,35.34
2019-02-09T05:12:31.725Z,35.24
2019-02-09T05:13:07.830Z,35.23
2019-02-09T05:13:44.095Z,35.33
2019-02-09T05:14:20.330Z,35.43
2019-02-09T05:14:56.512Z,35.47
2019-02-09T05:15:32.697Z,35.49
2019-02-09T05:16:09.014Z,35.49
2019-02-09T05:16:45.326Z,35.47
2019-02-09T05:17:21.567Z,35.46
2019-02-09T05:17:57.818Z,35.51
2019-02-09T05:18:34.098Z,35.53
2019-02-09T05:19:10.397Z,35.53
2019-02-09T05:19:46.634Z,35.64
2019-02-09T05:20:24.966Z,35.67
2019-02-09T05:21:01.485Z,35.65
2019-02-09T05:21:37.706Z,35.56
2019-02-09T05:22:13.932Z,35.64
2019-02-09T05:22:50.316Z,35.73
2019-02-09T05:23:26.291Z,35.68
2019-02-09T05:24:02.358Z,35.61
2019-02-09T05:24:38.672Z,35.56
2019-02-09T05:25:15.260Z,35.51
2019-02-09T05:25:51.391Z,35.60
2019-02-09T05:26:27.562Z,35.72
2019-02-09T05:27:03.707Z,35.82
2019-02-09T05:27:39.968Z,35.90
2019-02-09T05:28:16.274Z,35.96
2019-02-09T05:28:52.313Z,36.04
2019-02-09T05:29:28.473Z,36.08
2019-02-09T05:30:04.728Z,35.98
2019-02-09T05:30:40.903Z,35.93
2019-02-09T05:31:22.908Z,35.90
2019-02-09T05:31:56.391Z,35.93
2019-02-09T05:32:32.655Z,35.98
2019-02-09T05:33:08.874Z,35.83
2019-02-09T05:33:45.142Z,35.74
2019-02-09T05:34:21.441Z,35.71
2019-02-09T05:34:57.814Z,35.68
2019-02-09T05:35:33.886Z,35.78
2019-02-09T05:36:09.995Z,35.81
2019-02-09T05:36:46.343Z,35.86
2019-02-09T05:37:22.494Z,35.94
2019-02-09T05:37:58.672Z,35.95
2019-02-09T05:38:34.900Z,36.04
2019-02-09T05:39:11.472Z,36.02
2019-02-09T05:39:47.704Z,36.05
2019-02-09T05:40:24.458Z,36.04
2019-02-09T05:41:00.740Z,36.03
2019-02-09T05:41:36.957Z,35.90
2019-02-09T05:42:13.125Z,35.83
2019-02-09T05:42:49.311Z,35.81
2019-02-09T05:43:25.604Z,35.85
2019-02-09T05:44:01.669Z,35.83
2019-02-09T05:44:37.790Z,35.74
2019-02-09T05:45:16.851Z,35.78
2019-02-09T05:45:52.991Z,35.81
2019-02-09T05:46:29.262Z,35.89
2019-02-09T05:47:05.522Z,35.93
2019-02-09T05:47:41.824Z,35.99
2019-02-09T05:48:17.989Z,35.98
2019-02-09T05:48:54.258Z,35.90
2019-02-09T05:49:30.658Z,35.83
2019-02-09T05:50:09.880Z,35.71
2019-02-09T05:50:46.025Z,35.69
2019-02-09T05:51:22.206Z,35.62
2019-02-09T05:51:58.534Z,35.57
2019-02-09T05:52:34.814Z,35.54
2019-02-09T05:53:10.915Z,35.47
2019-02-09T05:53:47.034Z,35.45
2019-02-09T05:54:23.312Z,35.40
2019-02-09T05:54:59.612Z,35.36
2019-02-09T05:55:35.834Z,35.33
2019-02-09T05:56:11.893Z,35.30
2019-02-09T05:56:48.035Z,35.28
2019-02-09T05:57:26.065Z,35.23
2019-02-09T05:58:02.248Z,35.22
2019-02-09T05:58:41.077Z,35.13
2019-02-09T05:59:17.190Z,35.11
2019-02-09T05:59:53.306Z,35.08
2019-02-09T06:00:37.505Z,35.00
2019-02-09T06:01:13.617Z,34.97
2019-02-09T06:01:49.819Z,34.92
2019-02-09T06:02:25.971Z,34.90
2019-02-09T06:03:02.851Z,34.87
2019-02-09T06:03:38.956Z,34.87
2019-02-09T06:04:15.215Z,34.85
2019-02-09T06:04:51.359Z,34.86
2019-02-09T06:05:27.557Z,34.92
2019-02-09T06:06:03.735Z,34.96
2019-02-09T06:06:39.829Z,35.08
2019-02-09T06:07:15.990Z,35.05
2019-02-09T06:07:52.343Z,35.04
2019-02-09T06:08:28.514Z,34.99
2019-02-09T06:09:05.631Z,34.99
2019-02-09T06:09:41.794Z,34.92
2019-02-09T06:10:18.531Z,34.98
2019-02-09T06:10:54.722Z,34.89
2019-02-09T06:11:30.829Z,34.83
2019-02-09T06:12:07.228Z,34.81
2019-02-09T06:12:43.443Z,34.81
2019-02-09T06:13:19.577Z,34.75
2019-02-09T06:13:55.675Z,34.75
2019-02-09T06:14:31.838Z,34.69
2019-02-09T06:15:08.600Z,34.67
2019-02-09T06:15:44.902Z,34.67
2019-02-09T06:16:21.082Z,34.65
2019-02-09T06:16:57.422Z,34.65
2019-02-09T06:17:33.454Z,34.64
2019-02-09T06:18:09.745Z,34.64
2019-02-09T06:18:45.947Z,34.63
2019-02-09T06:19:22.109Z,34.63
2019-02-09T06:19:58.188Z,34.64
2019-02-09T06:20:34.434Z,34.64
2019-02-09T06:21:10.623Z,34.64
2019-02-09T06:21:46.819Z,34.64
2019-02-09T06:22:23.091Z,34.62
2019-02-09T06:22:59.387Z,34.62
2019-02-09T06:23:35.501Z,34.62
2019-02-09T06:24:11.762Z,34.56
2019-02-09T06:24:47.888Z,34.54
2019-02-09T06:25:24.185Z,34.51
2019-02-09T06:26:00.360Z,34.49
2019-02-09T06:26:36.592Z,34.47
2019-02-09T06:27:12.619Z,34.45
2019-02-09T06:27:48.689Z,34.43
2019-02-09T06:28:24.836Z,34.42
2019-02-09T06:29:00.986Z,34.42
2019-02-09T06:29:37.292Z,34.41
2019-02-09T06:30:16.379Z,34.41
2019-02-09T06:30:52.507Z,34.39
2019-02-09T06:31:28.767Z,34.39
2019-02-09T06:32:04.975Z,34.39
2019-02-09T06:32:41.270Z,34.38
2019-02-09T06:33:17.374Z,34.39
2019-02-09T06:33:53.760Z,34.48
2019-02-09T06:34:29.990Z,34.55
2019-02-09T06:35:06.831Z,34.63
2019-02-09T06:35:42.934Z,34.60
2019-02-09T06:36:19.207Z,34.56
2019-02-09T06:36:57.959Z,34.55
2019-02-09T06:37:34.170Z,34.54
2019-02-09T06:38:10.272Z,34.54
2019-02-09T06:38:46.530Z,34.55
2019-02-09T06:39:22.624Z,34.56
2019-02-09T06:39:58.713Z,34.57
2019-02-09T06:40:34.990Z,34.58
2019-02-09T06:41:11.171Z,34.58
2019-02-09T06:41:47.450Z,34.60
2019-02-09T06:42:23.637Z,34.61
2019-02-09T06:42:59.818Z,34.61
2019-02-09T06:43:35.993Z,34.64
2019-02-09T06:44:12.268Z,34.65
2019-02-09T06:44:48.599Z,34.75
2019-02-09T06:45:25.277Z,34.80
2019-02-09T06:46:01.447Z,34.79
2019-02-09T06:46:37.513Z,34.82
2019-02-09T06:47:13.767Z,34.81
2019-02-09T06:47:49.999Z,34.80
2019-02-09T06:48:28.452Z,34.78
2019-02-09T06:49:04.681Z,34.76
2019-02-09T06:49:40.857Z,34.77
2019-02-09T06:50:25.436Z,34.75
2019-02-09T06:51:03.104Z,34.73
2019-02-09T06:51:39.412Z,34.70
2019-02-09T06:52:15.638Z,34.67
2019-02-09T06:52:51.640Z,34.65
2019-02-09T06:53:27.965Z,34.63
2019-02-09T06:54:04.110Z,34.62
2019-02-09T06:54:40.445Z,34.59
2019-02-09T06:55:17.233Z,34.57
2019-02-09T06:55:53.323Z,34.56
2019-02-09T06:56:29.595Z,34.54
2019-02-09T06:57:05.614Z,34.50
2019-02-09T06:57:41.659Z,34.47
2019-02-09T06:58:17.940Z,34.47
2019-02-09T06:58:54.076Z,34.46
2019-02-09T06:59:30.265Z,34.44
2019-02-09T07:00:07.293Z,34.41
2019-02-09T07:00:43.509Z,34.38
2019-02-09T07:01:19.790Z,34.36
2019-02-09T07:01:55.930Z,34.34
2019-02-09T07:02:32.153Z,34.30
2019-02-09T07:03:08.355Z,34.27
2019-02-09T07:03:44.615Z,34.27
2019-02-09T07:04:20.789Z,34.27
2019-02-09T07:04:57.173Z,34.28
2019-02-09T07:05:33.459Z,34.26
2019-02-09T07:06:09.543Z,34.28
2019-02-09T07:06:45.722Z,34.32
2019-02-09T07:07:24.573Z,34.43
2019-02-09T07:08:00.864Z,34.47
2019-02-09T07:08:37.150Z,34.53
2019-02-09T07:09:13.296Z,34.56
2019-02-09T07:09:49.593Z,34.53
2019-02-09T07:10:26.115Z,34.55
2019-02-09T07:11:02.246Z,34.55
2019-02-09T07:11:38.435Z,34.58
2019-02-09T07:12:14.615Z,34.64
2019-02-09T07:12:50.763Z,34.70
2019-02-09T07:13:27.133Z,34.74
2019-02-09T07:14:03.349Z,34.79
2019-02-09T07:14:39.357Z,34.85
2019-02-09T07:15:17.991Z,34.89
2019-02-09T07:15:54.332Z,34.95
2019-02-09T07:16:30.627Z,35.05
2019-02-09T07:17:06.875Z,35.12
2019-02-09T07:17:42.976Z,35.14
2019-02-09T07:18:19.188Z,35.17
2019-02-09T07:18:55.368Z,35.20
2019-02-09T07:19:31.625Z,35.26
2019-02-09T07:20:08.895Z,35.31
2019-02-09T07:20:45.136Z,35.30
2019-02-09T07:21:21.196Z,35.38
2019-02-09T07:21:57.532Z,35.43
2019-02-09T07:22:33.796Z,35.47
2019-02-09T07:23:09.959Z,35.47
2019-02-09T07:23:47.207Z,35.50
2019-02-09T07:24:23.375Z,35.54
2019-02-09T07:24:59.519Z,35.48
2019-02-09T07:25:35.958Z,35.36
2019-02-09T07:26:12.180Z,35.29
2019-02-09T07:26:48.246Z,35.30
2019-02-09T07:27:24.540Z,35.30
2019-02-09T07:28:00.846Z,35.28
2019-02-09T07:28:37.045Z,35.27
2019-02-09T07:29:13.383Z,35.25
2019-02-09T07:29:49.510Z,35.24
2019-02-09T07:30:28.814Z,35.23
2019-02-09T07:31:04.997Z,35.23
2019-02-09T07:31:41.154Z,35.21
2019-02-09T07:32:17.396Z,35.21
2019-02-09T07:32:53.777Z,35.22
2019-02-09T07:33:30.100Z,35.22
2019-02-09T07:34:06.298Z,35.22
2019-02-09T07:34:45.112Z,35.23
2019-02-09T07:35:21.294Z,35.18
2019-02-09T07:35:57.488Z,35.26
2019-02-09T07:36:33.651Z,35.33
2019-02-09T07:37:09.998Z,35.36
2019-02-09T07:37:46.413Z,35.42
2019-02-09T07:38:22.585Z,35.47
2019-02-09T07:38:58.713Z,35.46
2019-02-09T07:39:34.864Z,35.46
2019-02-09T07:40:11.869Z,35.45
2019-02-09T07:40:48.226Z,35.44
2019-02-09T07:41:24.392Z,35.43
2019-02-09T07:42:00.395Z,35.41
2019-02-09T07:42:36.566Z,35.39
2019-02-09T07:43:12.872Z,35.35
2019-02-09T07:43:49.040Z,35.31
2019-02-09T07:44:25.308Z,35.26
2019-02-09T07:45:01.513Z,35.20
2019-02-09T07:45:37.720Z,35.14
2019-02-09T07:46:13.887Z,35.11
2019-02-09T07:46:50.194Z,35.04
2019-02-09T07:47:26.441Z,34.99
2019-02-09T07:48:02.739Z,34.95
2019-02-09T07:48:38.943Z,34.88